createdAt,value
2024-04-15T00:00:16.337Z,57.1941
2024-04-15T00:01:19.387Z,56.9566
2024-04-15T00:02:22.211Z,54.3807
2024-04-15T00:03:25.156Z,55.8003
2024-04-15T00:04:28.116Z,53.3839
2024-04-15T00:05:31.064Z,62.3328
2024-04-15T00:06:34.065Z,57.8992
2024-04-15T00:07:36.970Z,57.0579
2024-04-15T00:08:39.929Z,58.9111
2024-04-15T00:09:42.915Z,61.7188
2024-04-15T00:10:45.875Z,58.7001
2024-04-15T00:11:48.807Z,60.9067
2024-04-15T00:12:51.760Z,59.7428
2024-04-15T00:13:54.724Z,58.3550
2024-04-15T00:14:57.666Z,58.1480
2024-04-15T00:16:00.737Z,53.5646
2024-04-15T00:17:03.586Z,59.0382
2024-04-15T00:18:06.586Z,60.6215
2024-04-15T00:19:09.505Z,57.5238
2024-04-15T00:20:12.452Z,59.2879
2024-04-15T00:21:15.422Z,57.8942
2024-04-15T00:22:18.395Z,60.1966
2024-04-15T00:23:21.320Z,64.3577
2024-04-15T00:24:24.276Z,68.1612
2024-04-15T00:25:27.238Z,66.4570
2024-04-15T00:26:30.197Z,66.7645
2024-04-15T00:27:33.247Z,67.7852
2024-04-15T00:28:36.120Z,77.0723
2024-04-15T00:29:39.069Z,67.1753
2024-04-15T00:30:42.051Z,60.8246
2024-04-15T00:31:44.987Z,65.1161
2024-04-15T00:32:48.998Z,60.8580
2024-04-15T00:33:50.894Z,60.3000
2024-04-15T00:34:53.856Z,63.4767
2024-04-15T00:35:56.827Z,64.8864
2024-04-15T00:36:59.781Z,70.3808
2024-04-15T00:38:02.742Z,60.7950
2024-04-15T00:39:05.682Z,63.6159
2024-04-15T00:40:08.743Z,66.0852
2024-04-15T00:41:11.606Z,71.4306
2024-04-15T00:42:14.568Z,66.7906
2024-04-15T00:43:17.573Z,67.0307
2024-04-15T00:44:20.470Z,68.7374
2024-04-15T00:45:23.429Z,65.9332
2024-04-15T00:46:26.441Z,67.4905
2024-04-15T00:47:29.353Z,71.9691
2024-04-15T00:48:32.311Z,75.3269
2024-04-15T00:49:35.317Z,77.3879
2024-04-15T00:50:38.227Z,76.3904
2024-04-15T00:51:41.214Z,71.9498
2024-04-15T00:52:44.146Z,77.2104
2024-04-15T00:53:47.094Z,79.4796
2024-04-15T00:54:50.071Z,72.4248
2024-04-15T00:55:53.023Z,70.1598
2024-04-15T00:56:55.974Z,67.8178
2024-04-15T00:57:59.281Z,69.3239
2024-04-15T00:59:01.879Z,69.9861
2024-04-15T01:00:04.844Z,71.7269
2024-04-15T01:01:07.862Z,71.6152
2024-04-15T01:02:10.850Z,70.0747
2024-04-15T01:03:13.824Z,66.4291
2024-04-15T01:04:16.694Z,57.4677
2024-04-15T01:05:19.599Z,66.0879
2024-04-15T01:06:22.552Z,69.8874
2024-04-15T01:07:25.526Z,70.9696
2024-04-15T01:08:29.292Z,65.0171
2024-04-15T01:09:31.422Z,67.3712
2024-04-15T01:10:50.108Z,63.3014
2024-04-15T01:11:37.382Z,67.1922
2024-04-15T01:12:40.341Z,69.4482
2024-04-15T01:13:43.268Z,68.8448
2024-04-15T01:14:46.205Z,64.8984
2024-04-15T01:15:49.171Z,71.4498
2024-04-15T01:16:52.118Z,69.1568
2024-04-15T01:17:55.118Z,72.2752
2024-04-15T01:19:00.481Z,70.5245
2024-04-15T01:20:01.044Z,69.1559
2024-04-15T01:21:03.936Z,63.8866
2024-04-15T01:22:09.054Z,67.9718
2024-04-15T01:23:09.848Z,70.6863
2024-04-15T01:24:13.272Z,75.2599
2024-04-15T01:25:15.834Z,73.8644
2024-04-15T01:26:18.710Z,76.8875
2024-04-15T01:27:21.664Z,82.5849
2024-04-15T01:28:24.618Z,83.9995
2024-04-15T01:29:28.409Z,82.6642
2024-04-15T01:30:30.555Z,85.9228
2024-04-15T01:31:33.496Z,81.0310
2024-04-15T01:32:36.489Z,81.3561
2024-04-15T01:33:39.414Z,73.1059
2024-04-15T01:34:42.789Z,80.2905
2024-04-15T01:35:45.328Z,80.6553
2024-04-15T01:36:48.331Z,80.1428
2024-04-15T01:37:51.235Z,82.2147
2024-04-15T01:38:54.453Z,82.1355
2024-04-15T01:39:57.172Z,75.4371
2024-04-15T01:41:00.088Z,81.1891
2024-04-15T01:42:03.060Z,74.6280
2024-04-15T01:43:06.054Z,79.6688
2024-04-15T01:44:08.975Z,75.0781
2024-04-15T01:45:11.931Z,74.8512
2024-04-15T01:46:14.910Z,71.4414
2024-04-15T01:47:17.881Z,70.7067
2024-04-15T01:48:20.850Z,67.0877
2024-04-15T01:49:23.807Z,60.9166
2024-04-15T01:50:26.740Z,65.3096
2024-04-15T01:51:29.658Z,63.3418
2024-04-15T01:52:32.617Z,62.0451
2024-04-15T01:53:35.588Z,64.2783
2024-04-15T01:54:38.535Z,66.6582
2024-04-15T01:55:41.793Z,66.6217
2024-04-15T01:56:44.447Z,61.4059
2024-04-15T01:57:47.402Z,62.8363
2024-04-15T01:58:50.352Z,63.1072
2024-04-15T01:59:53.313Z,63.3313
2024-04-15T02:00:56.333Z,66.4774
2024-04-15T02:01:59.235Z,66.1317
2024-04-15T02:03:02.209Z,60.7280
2024-04-15T02:04:05.176Z,61.8174
2024-04-15T02:05:08.264Z,60.2497
2024-04-15T02:06:11.058Z,60.1346
2024-04-15T02:07:14.037Z,64.4869
2024-04-15T02:08:16.962Z,69.3130
2024-04-15T02:09:19.912Z,61.4715
2024-04-15T02:10:22.949Z,63.6531
2024-04-15T02:11:25.887Z,60.9453
2024-04-15T02:12:29.767Z,61.1973
2024-04-15T02:13:31.738Z,65.5449
2024-04-15T02:14:34.710Z,63.7630
2024-04-15T02:15:37.649Z,56.8868
2024-04-15T02:16:40.612Z,62.9918
2024-04-15T02:17:43.614Z,60.8272
2024-04-15T02:18:46.569Z,59.8674
2024-04-15T02:19:49.504Z,61.1967
2024-04-15T02:20:52.433Z,60.3158
2024-04-15T02:21:55.796Z,63.1852
2024-04-15T02:22:58.335Z,62.3214
2024-04-15T02:24:01.301Z,60.5935
2024-04-15T02:25:04.268Z,62.6944
2024-04-15T02:26:07.197Z,60.2797
2024-04-15T02:27:10.168Z,62.3711
2024-04-15T02:28:13.129Z,62.1953
2024-04-15T02:29:16.042Z,64.1249
2024-04-15T02:30:19.008Z,61.9495
2024-04-15T02:31:22.017Z,56.0340
2024-04-15T02:32:24.953Z,58.0612
2024-04-15T02:33:27.853Z,62.1029
2024-04-15T02:34:30.797Z,61.8169
2024-04-15T02:35:33.760Z,62.4239
2024-04-15T02:36:36.695Z,59.7210
2024-04-15T02:37:39.660Z,58.9354
2024-04-15T02:38:42.600Z,61.4763
2024-04-15T02:39:45.551Z,61.8857
2024-04-15T02:40:48.487Z,60.8837
2024-04-15T02:41:51.451Z,60.5311
2024-04-15T02:42:54.445Z,65.1460
2024-04-15T02:43:57.426Z,60.2484
2024-04-15T02:45:00.378Z,58.2460
2024-04-15T02:46:03.363Z,62.5560
2024-04-15T02:47:06.272Z,61.2505
2024-04-15T02:48:09.358Z,58.1989
2024-04-15T02:49:12.229Z,60.1266
2024-04-15T02:50:15.112Z,58.8968
2024-04-15T02:51:18.074Z,62.7390
2024-04-15T02:52:21.080Z,63.4221
2024-04-15T02:53:23.996Z,67.9713
2024-04-15T02:54:26.907Z,58.6927
2024-04-15T02:55:29.933Z,61.2897
2024-04-15T02:56:32.816Z,61.3000
2024-04-15T02:57:35.757Z,57.2920
2024-04-15T02:58:38.792Z,62.0779
2024-04-15T02:59:41.655Z,59.0126
2024-04-15T03:00:44.660Z,61.1870
2024-04-15T03:01:47.658Z,56.7898
2024-04-15T03:02:50.533Z,63.1079
2024-04-15T03:03:53.523Z,59.7535
2024-04-15T03:04:56.631Z,60.0957
2024-04-15T03:05:59.386Z,63.8335
2024-04-15T03:07:02.352Z,60.3893
2024-04-15T03:08:05.267Z,61.7685
2024-04-15T03:09:08.232Z,59.6094
2024-04-15T03:10:11.169Z,60.6458
2024-04-15T03:11:14.116Z,60.8207
2024-04-15T03:12:17.067Z,62.0175
2024-04-15T03:13:20.114Z,62.0398
2024-04-15T03:14:23.330Z,61.3882
2024-04-15T03:15:25.920Z,57.9617
2024-04-15T03:16:29.021Z,57.6539
2024-04-15T03:17:31.859Z,60.7827
2024-04-15T03:18:34.771Z,58.4478
2024-04-15T03:19:37.722Z,58.8037
2024-04-15T03:20:40.676Z,58.5858
2024-04-15T03:21:43.641Z,60.4427
2024-04-15T03:22:46.563Z,56.3760
2024-04-15T03:23:49.533Z,57.0334
2024-04-15T03:24:52.548Z,58.3975
2024-04-15T03:25:55.434Z,62.1581
2024-04-15T03:26:58.349Z,60.2863
2024-04-15T03:28:01.342Z,60.4266
2024-04-15T03:29:04.249Z,58.4342
2024-04-15T03:30:07.202Z,58.3186
2024-04-15T03:31:10.843Z,59.7638
2024-04-15T03:32:13.154Z,57.7428
2024-04-15T03:33:16.041Z,57.7314
2024-04-15T03:34:19.027Z,56.8397
2024-04-15T03:35:21.956Z,51.3390
2024-04-15T03:36:24.880Z,57.4508
2024-04-15T03:37:27.823Z,56.4674
2024-04-15T03:38:30.766Z,57.5375
2024-04-15T03:39:33.727Z,57.9398
2024-04-15T03:40:37.492Z,53.3462
2024-04-15T03:41:39.614Z,56.6251
2024-04-15T03:42:42.591Z,58.5972
2024-04-15T03:43:45.511Z,55.9125
2024-04-15T03:44:48.465Z,59.9926
2024-04-15T03:45:51.456Z,58.8501
2024-04-15T03:46:54.400Z,60.5604
2024-04-15T03:47:57.314Z,58.8559
2024-04-15T03:49:00.347Z,56.7571
2024-04-15T03:50:03.226Z,58.2044
2024-04-15T03:51:06.147Z,57.1823
2024-04-15T03:52:09.122Z,59.9993
2024-04-15T03:53:12.048Z,52.6737
2024-04-15T03:54:14.984Z,58.8768
2024-04-15T03:55:17.988Z,54.8149
2024-04-15T03:56:21.540Z,57.2986
2024-04-15T03:57:23.823Z,62.4191
2024-04-15T03:58:26.749Z,59.0622
2024-04-15T03:59:29.702Z,53.4880
2024-04-15T04:00:32.645Z,57.8949
2024-04-15T04:01:35.696Z,56.6104
2024-04-15T04:02:38.565Z,55.7996
2024-04-15T04:03:41.514Z,56.0437
2024-04-15T04:04:44.581Z,56.8240
2024-04-15T04:05:47.378Z,56.4558
2024-04-15T04:06:50.437Z,61.0745
2024-04-15T04:07:53.264Z,57.2728
2024-04-15T04:08:56.210Z,54.0322
2024-04-15T04:09:59.203Z,56.8127
2024-04-15T04:11:02.120Z,55.8730
2024-04-15T04:12:05.855Z,59.9423
2024-04-15T04:13:08.009Z,59.4219
2024-04-15T04:14:10.936Z,56.1219
2024-04-15T04:15:13.884Z,55.9905
2024-04-15T04:16:16.919Z,54.7923
2024-04-15T04:17:19.902Z,54.9657
2024-04-15T04:18:22.804Z,59.3633
2024-04-15T04:19:25.860Z,58.9506
2024-04-15T04:20:28.612Z,57.7187
2024-04-15T04:21:31.716Z,58.3237
2024-04-15T04:22:34.517Z,62.1926
2024-04-15T04:23:37.462Z,58.3094
2024-04-15T04:24:40.407Z,58.5277
2024-04-15T04:25:43.358Z,58.7970
2024-04-15T04:26:46.310Z,58.0380
2024-04-15T04:27:49.379Z,58.1881
2024-04-15T04:28:52.217Z,58.8192
2024-04-15T04:29:55.162Z,56.5819
2024-04-15T04:30:58.134Z,57.5852
2024-04-15T04:32:01.096Z,55.7730
2024-04-15T04:33:04.176Z,55.2328
2024-04-15T04:34:06.972Z,58.9477
2024-04-15T04:35:09.897Z,56.6602
2024-04-15T04:36:12.840Z,57.8519
2024-04-15T04:37:15.854Z,55.5879
2024-04-15T04:38:18.779Z,57.7122
2024-04-15T04:39:21.680Z,54.9081
2024-04-15T04:40:24.684Z,56.7278
2024-04-15T04:41:27.609Z,54.6703
2024-04-15T04:42:30.527Z,60.5392
2024-04-15T04:43:34.293Z,58.2609
2024-04-15T04:44:36.413Z,57.0622
2024-04-15T04:45:39.369Z,51.8963
2024-04-15T04:46:42.323Z,55.8440
2024-04-15T04:47:45.300Z,57.6517
2024-04-15T04:48:48.359Z,54.8719
2024-04-15T04:49:51.157Z,54.0881
2024-04-15T04:50:54.098Z,55.6891
2024-04-15T04:51:57.067Z,59.2407
2024-04-15T04:52:59.991Z,58.4936
2024-04-15T04:54:02.976Z,56.0096
2024-04-15T04:55:05.897Z,57.8918
2024-04-15T04:56:08.862Z,56.9882
2024-04-15T04:57:11.781Z,59.3230
2024-04-15T04:58:14.837Z,57.0924
2024-04-15T04:59:17.846Z,58.3633
2024-04-15T05:00:20.613Z,61.9085
2024-04-15T05:01:23.617Z,54.8946
2024-04-15T05:02:26.623Z,57.3049
2024-04-15T05:03:29.480Z,54.9258
2024-04-15T05:04:32.586Z,54.5248
2024-04-15T05:05:35.338Z,58.1279
2024-04-15T05:06:38.279Z,56.0386
2024-04-15T05:07:41.237Z,53.7583
2024-04-15T05:08:44.174Z,55.6678
2024-04-15T05:09:47.120Z,50.8722
2024-04-15T05:10:50.061Z,51.4293
2024-04-15T05:11:53.071Z,55.4424
2024-04-15T05:12:55.985Z,53.0140
2024-04-15T05:13:58.891Z,53.8124
2024-04-15T05:15:01.837Z,58.2538
2024-04-15T05:16:05.343Z,57.2553
2024-04-15T05:17:07.716Z,53.3995
2024-04-15T05:18:10.719Z,56.0316
2024-04-15T05:19:13.634Z,53.8715
2024-04-15T05:20:17.558Z,53.8075
2024-04-15T05:21:19.561Z,55.9447
2024-04-15T05:22:22.478Z,56.1599
2024-04-15T05:23:25.388Z,55.5205
2024-04-15T05:24:28.329Z,52.3433
2024-04-15T05:25:31.338Z,48.7732
2024-04-15T05:26:34.230Z,53.5700
2024-04-15T05:27:37.499Z,54.0156
2024-04-15T05:28:40.112Z,51.1544
2024-04-15T05:29:43.063Z,53.4456
2024-04-15T05:30:46.344Z,57.3376
2024-04-15T05:31:49.006Z,54.7235
2024-04-15T05:32:51.925Z,55.2971
2024-04-15T05:33:54.858Z,53.3240
2024-04-15T05:34:57.792Z,54.1125
2024-04-15T05:36:00.753Z,53.3903
2024-04-15T05:37:03.716Z,50.2814
2024-04-15T05:38:06.621Z,52.3315
2024-04-15T05:39:09.564Z,54.3543
2024-04-15T05:40:12.523Z,56.7054
2024-04-15T05:41:15.481Z,57.9467
2024-04-15T05:42:18.400Z,60.8092
2024-04-15T05:43:21.354Z,59.5645
2024-04-15T05:44:24.287Z,55.9250
2024-04-15T05:45:27.234Z,54.8677
2024-04-15T05:46:30.235Z,57.1247
2024-04-15T05:47:33.175Z,53.9847
2024-04-15T05:48:36.179Z,57.6855
2024-04-15T05:49:39.095Z,53.7936
2024-04-15T05:50:41.993Z,52.2350
2024-04-15T05:51:45.363Z,54.7716
2024-04-15T05:52:47.859Z,53.5948
2024-04-15T05:53:50.801Z,56.1698
2024-04-15T05:54:53.780Z,55.5051
2024-04-15T05:55:56.703Z,56.7169
2024-04-15T05:56:59.844Z,57.8440
2024-04-15T05:58:02.604Z,56.6056
2024-04-15T05:59:05.540Z,57.2612
2024-04-15T06:00:08.485Z,53.2833
2024-04-15T06:01:11.553Z,58.1756
2024-04-15T06:02:15.352Z,57.9161
2024-04-15T06:03:17.344Z,55.5886
2024-04-15T06:04:20.287Z,59.4094
2024-04-15T06:05:23.203Z,53.9485
2024-04-15T06:06:26.149Z,55.8675
2024-04-15T06:07:29.376Z,51.3710
2024-04-15T06:08:32.045Z,54.7748
2024-04-15T06:09:34.993Z,60.7907
2024-04-15T06:10:37.943Z,55.7106
2024-04-15T06:11:40.898Z,53.8914
2024-04-15T06:12:43.901Z,58.3951
2024-04-15T06:13:46.773Z,56.6559
2024-04-15T06:14:49.709Z,59.1262
2024-04-15T06:15:52.724Z,53.8296
2024-04-15T06:16:55.743Z,56.6603
2024-04-15T06:17:58.642Z,54.1880
2024-04-15T06:19:01.522Z,56.6572
2024-04-15T06:20:04.452Z,59.0958
2024-04-15T06:21:07.380Z,56.2916
2024-04-15T06:22:10.382Z,58.1635
2024-04-15T06:23:13.547Z,56.2470
2024-04-15T06:24:16.811Z,55.7245
2024-04-15T06:25:19.255Z,55.5886
2024-04-15T06:26:22.121Z,55.4891
2024-04-15T06:27:25.071Z,59.1042
2024-04-15T06:28:28.104Z,58.9390
2024-04-15T06:29:30.984Z,58.1583
2024-04-15T06:30:33.917Z,55.7336
2024-04-15T06:31:36.899Z,53.2834
2024-04-15T06:32:39.948Z,60.7201
2024-04-15T06:33:43.140Z,62.3525
2024-04-15T06:34:45.710Z,62.5120
2024-04-15T06:35:48.625Z,56.8097
2024-04-15T06:36:51.576Z,62.8614
2024-04-15T06:37:54.510Z,60.2520
2024-04-15T06:38:57.476Z,56.5892
2024-04-15T06:40:00.505Z,60.3262
2024-04-15T06:41:03.360Z,56.2136
2024-04-15T06:42:06.291Z,59.9851
2024-04-15T06:43:09.336Z,57.2670
2024-04-15T06:44:13.413Z,61.4028
2024-04-15T06:45:15.138Z,61.8033
2024-04-15T06:46:18.162Z,58.8930
2024-04-15T06:47:21.065Z,57.1478
2024-04-15T06:48:23.999Z,54.7292
2024-04-15T06:49:26.970Z,55.4512
2024-04-15T06:50:29.892Z,55.5724
2024-04-15T06:51:32.894Z,55.6940
2024-04-15T06:52:35.891Z,51.7037
2024-04-15T06:53:38.807Z,57.4098
2024-04-15T06:54:41.752Z,53.0532
2024-04-15T06:55:44.699Z,56.0116
2024-04-15T06:56:47.623Z,59.1922
2024-04-15T06:57:50.588Z,60.3930
2024-04-15T06:58:53.529Z,62.2895
2024-04-15T06:59:56.479Z,56.2629
2024-04-15T07:00:59.476Z,54.3558
2024-04-15T07:02:02.530Z,55.3282
2024-04-15T07:03:05.346Z,57.4467
2024-04-15T07:04:08.623Z,58.2134
2024-04-15T07:05:11.225Z,61.7711
2024-04-15T07:06:14.166Z,51.8403
2024-04-15T07:07:17.188Z,57.7111
2024-04-15T07:08:20.048Z,57.7705
2024-04-15T07:09:23.000Z,57.4235
2024-04-15T07:10:27.340Z,59.3202
2024-04-15T07:11:29.025Z,52.6185
2024-04-15T07:12:31.855Z,56.8299
2024-04-15T07:13:34.800Z,58.0537
2024-04-15T07:14:37.746Z,56.7375
2024-04-15T07:15:40.709Z,59.8862
2024-04-15T07:16:43.776Z,54.9385
2024-04-15T07:17:46.656Z,60.6208
2024-04-15T07:18:49.600Z,60.3312
2024-04-15T07:19:52.487Z,54.8703
2024-04-15T07:20:55.449Z,53.4646
2024-04-15T07:21:58.483Z,53.9254
2024-04-15T07:23:01.336Z,52.7710
2024-04-15T07:24:04.307Z,50.3987
2024-04-15T07:25:07.313Z,48.4551
2024-04-15T07:26:10.203Z,46.4664
2024-04-15T07:27:13.136Z,45.0789
2024-04-15T07:28:16.129Z,47.3170
2024-04-15T07:29:19.036Z,45.4245
2024-04-15T07:30:21.985Z,45.8674
2024-04-15T07:31:25.098Z,43.4188
2024-04-15T07:32:27.947Z,45.8865
2024-04-15T07:33:30.840Z,45.7746
2024-04-15T07:34:33.821Z,43.6593
2024-04-15T07:35:36.739Z,45.7077
2024-04-15T07:36:39.694Z,44.7181
2024-04-15T07:37:42.620Z,47.6851
2024-04-15T07:38:45.572Z,43.1027
2024-04-15T07:39:48.900Z,45.7482
2024-04-15T07:40:51.529Z,46.5332
2024-04-15T07:41:54.462Z,48.6766
2024-04-15T07:42:57.405Z,48.4365
2024-04-15T07:44:00.328Z,48.4810
2024-04-15T07:45:03.287Z,46.5956
2024-04-15T07:46:06.281Z,48.1795
2024-04-15T07:47:09.280Z,52.7704
2024-04-15T07:48:12.164Z,46.4654
2024-04-15T07:49:15.100Z,47.1460
2024-04-15T07:50:18.037Z,44.9164
2024-04-15T07:51:20.981Z,46.0473
2024-04-15T07:52:23.999Z,46.2052
2024-04-15T07:53:26.888Z,45.1197
2024-04-15T07:54:29.830Z,44.3716
2024-04-15T07:55:32.858Z,47.7434
2024-04-15T07:56:37.987Z,53.9676
2024-04-15T07:57:38.886Z,52.6726
2024-04-15T07:58:41.646Z,49.8940
2024-04-15T07:59:44.613Z,48.2985
2024-04-15T08:00:47.598Z,49.6064
2024-04-15T08:01:50.589Z,47.1656
2024-04-15T08:02:53.531Z,48.7468
2024-04-15T08:03:56.477Z,45.1164
2024-04-15T08:04:59.448Z,43.1017
2024-04-15T08:06:02.322Z,45.2552
2024-04-15T08:07:12.831Z,45.5437
2024-04-15T08:08:08.219Z,47.9018
2024-04-15T08:09:11.161Z,44.1408
2024-04-15T08:10:14.184Z,45.8351
2024-04-15T08:11:17.144Z,47.3480
2024-04-15T08:12:20.011Z,50.8031
2024-04-15T08:13:23.048Z,52.0541
2024-04-15T08:14:26.907Z,50.3379
2024-04-15T08:15:29.265Z,48.5998
2024-04-15T08:16:31.935Z,52.1333
2024-04-15T08:17:34.791Z,51.2365
2024-04-15T08:18:37.747Z,48.5318
2024-04-15T08:19:40.678Z,53.4307
2024-04-15T08:20:43.639Z,52.0246
2024-04-15T08:21:46.641Z,52.1911
2024-04-15T08:22:49.534Z,52.0617
2024-04-15T08:23:52.498Z,45.5717
2024-04-15T08:24:55.508Z,47.6235
2024-04-15T08:25:58.423Z,47.7068
2024-04-15T08:27:01.320Z,46.6726
2024-04-15T08:28:04.297Z,44.3527
2024-04-15T08:29:07.241Z,52.4083
2024-04-15T08:30:10.204Z,48.0711
2024-04-15T08:31:13.143Z,47.6216
2024-04-15T08:32:16.078Z,47.2858
2024-04-15T08:33:19.138Z,49.1433
2024-04-15T08:34:22.000Z,50.6653
2024-04-15T08:35:24.912Z,50.9306
2024-04-15T08:36:27.864Z,48.3278
2024-04-15T08:37:30.813Z,46.3721
2024-04-15T08:38:33.760Z,50.6685
2024-04-15T08:39:36.720Z,47.4347
2024-04-15T08:40:39.649Z,47.8935
2024-04-15T08:41:47.231Z,51.5538
2024-04-15T08:42:45.613Z,47.9124
2024-04-15T08:43:48.514Z,51.6235
2024-04-15T08:44:51.947Z,49.0997
2024-04-15T08:45:56.835Z,46.1950
2024-04-15T08:46:57.379Z,47.8383
2024-04-15T08:48:00.357Z,42.4756
2024-04-15T08:49:03.261Z,50.1503
2024-04-15T08:50:06.344Z,49.4139
2024-04-15T08:51:09.889Z,48.5118
2024-04-15T08:52:12.127Z,50.5928
2024-04-15T08:53:15.032Z,45.5052
2024-04-15T08:54:18.008Z,43.3121
2024-04-15T08:55:21.088Z,45.3072
2024-04-15T08:56:23.891Z,44.3353
2024-04-15T08:57:26.889Z,44.4785
2024-04-15T08:58:29.827Z,44.3297
2024-04-15T08:59:32.724Z,46.8722
2024-04-15T09:00:36.868Z,49.4768
2024-04-15T09:01:38.656Z,42.4289
2024-04-15T09:02:41.571Z,41.9784
2024-04-15T09:03:44.491Z,47.4426
2024-04-15T09:04:47.609Z,42.4109
2024-04-15T09:05:50.406Z,42.8564
2024-04-15T09:06:53.385Z,43.7547
2024-04-15T09:07:56.277Z,49.0223
2024-04-15T09:08:59.241Z,53.5149
2024-04-15T09:10:02.330Z,47.4459
2024-04-15T09:11:05.133Z,49.9446
2024-04-15T09:12:08.090Z,53.2589
2024-04-15T09:13:11.029Z,49.1166
2024-04-15T09:14:13.965Z,47.6180
2024-04-15T09:15:16.919Z,53.4389
2024-04-15T09:16:19.950Z,47.2722
2024-04-15T09:17:22.821Z,52.0737
2024-04-15T09:18:25.766Z,49.9285
2024-04-15T09:19:28.724Z,46.9334
2024-04-15T09:20:39.899Z,48.2039
2024-04-15T09:21:34.615Z,49.6399
2024-04-15T09:22:37.553Z,47.7077
2024-04-15T09:23:40.514Z,54.0316
2024-04-15T09:24:43.460Z,49.6194
2024-04-15T09:25:46.418Z,47.4435
2024-04-15T09:26:49.405Z,46.8883
2024-04-15T09:27:52.919Z,49.2117
2024-04-15T09:28:55.287Z,51.1205
2024-04-15T09:29:58.196Z,52.2459
2024-04-15T09:31:01.228Z,48.0686
2024-04-15T09:32:04.122Z,51.6353
2024-04-15T09:33:07.109Z,51.1178
2024-04-15T09:34:10.074Z,52.1238
2024-04-15T09:35:12.971Z,51.7631
2024-04-15T09:36:15.944Z,52.9851
2024-04-15T09:37:18.994Z,51.1785
2024-04-15T09:38:21.824Z,52.6724
2024-04-15T09:39:24.779Z,54.0703
2024-04-15T09:40:27.754Z,51.8518
2024-04-15T09:41:30.692Z,56.2384
2024-04-15T09:42:33.676Z,55.0786
2024-04-15T09:43:36.612Z,57.0889
2024-04-15T09:44:42.285Z,53.7066
2024-04-15T09:45:42.527Z,59.5437
2024-04-15T09:46:45.464Z,59.9356
2024-04-15T09:47:48.554Z,59.7591
2024-04-15T09:48:51.396Z,60.0204
2024-04-15T09:49:54.342Z,59.5180
2024-04-15T09:50:57.288Z,61.5875
2024-04-15T09:52:00.482Z,63.3108
2024-04-15T09:53:03.203Z,61.6679
2024-04-15T09:54:06.159Z,60.7450
2024-04-15T09:55:09.161Z,62.7772
2024-04-15T09:56:12.070Z,65.6542
2024-04-15T09:57:15.019Z,63.3464
2024-04-15T09:58:18.037Z,64.6120
2024-04-15T09:59:20.942Z,61.4341
2024-04-15T10:00:23.890Z,62.8802
2024-04-15T10:01:26.895Z,60.4322
2024-04-15T10:02:29.816Z,61.8714
2024-04-15T10:03:32.783Z,54.9783
2024-04-15T10:04:35.794Z,57.5321
2024-04-15T10:05:38.649Z,58.3166
2024-04-15T10:06:41.606Z,58.3672
2024-04-15T10:07:44.558Z,57.6232
2024-04-15T10:08:47.516Z,58.9331
2024-04-15T10:09:50.485Z,56.9891
2024-04-15T10:10:53.459Z,58.3969
2024-04-15T10:11:56.368Z,49.8283
2024-04-15T10:12:59.374Z,51.4641
2024-04-15T10:14:02.286Z,51.7113
2024-04-15T10:15:05.233Z,55.5974
2024-04-15T10:16:13.624Z,54.4123
2024-04-15T10:17:11.197Z,54.0127
2024-04-15T10:18:14.150Z,54.8205
2024-04-15T10:19:17.059Z,55.5083
2024-04-15T10:20:20.006Z,56.1140
2024-04-15T10:21:22.947Z,59.6126
2024-04-15T10:22:26.048Z,54.6388
2024-04-15T10:23:28.885Z,54.3579
2024-04-15T10:24:31.815Z,53.0538
2024-04-15T10:25:34.754Z,53.8095
2024-04-15T10:26:37.695Z,52.7325
2024-04-15T10:27:40.650Z,47.2950
2024-04-15T10:28:43.596Z,52.4912
2024-04-15T10:29:46.553Z,47.8394
2024-04-15T10:30:49.515Z,49.3465
2024-04-15T10:31:52.663Z,50.5112
2024-04-15T10:32:55.457Z,45.7849
2024-04-15T10:33:58.386Z,47.0158
2024-04-15T10:35:03.005Z,44.7676
2024-04-15T10:36:04.226Z,47.3105
2024-04-15T10:37:07.189Z,53.3666
2024-04-15T10:38:10.103Z,48.3203
2024-04-15T10:39:13.058Z,51.3141
2024-04-15T10:40:16.009Z,51.8527
2024-04-15T10:41:18.951Z,50.0403
2024-04-15T10:42:21.900Z,50.2674
2024-04-15T10:43:24.935Z,48.3637
2024-04-15T10:44:27.811Z,48.0530
2024-04-15T10:45:30.743Z,48.3705
2024-04-15T10:46:33.692Z,47.9004
2024-04-15T10:47:36.757Z,53.5267
2024-04-15T10:48:39.587Z,51.8127
2024-04-15T10:49:42.934Z,47.4026
2024-04-15T10:50:45.478Z,46.5478
2024-04-15T10:51:48.464Z,49.3899
2024-04-15T10:52:51.360Z,48.4893
2024-04-15T10:53:54.365Z,49.5709
2024-04-15T10:54:57.258Z,51.3276
2024-04-15T10:56:00.204Z,46.6787
2024-04-15T10:57:03.147Z,49.9955
2024-04-15T10:58:06.115Z,51.9355
2024-04-15T10:59:09.108Z,48.9405
2024-04-15T11:00:12.598Z,47.6658
2024-04-15T11:01:15.071Z,45.6671
2024-04-15T11:02:17.949Z,48.7757
2024-04-15T11:03:20.926Z,49.3879
2024-04-15T11:04:23.875Z,46.5461
2024-04-15T11:05:26.857Z,49.0140
2024-04-15T11:06:29.732Z,44.3492
2024-04-15T11:07:32.705Z,43.5738
2024-04-15T11:08:35.622Z,46.0753
2024-04-15T11:09:38.567Z,46.7431
2024-04-15T11:10:41.659Z,48.3314
2024-04-15T11:11:44.461Z,45.3483
2024-04-15T11:12:47.437Z,40.6539
2024-04-15T11:13:50.351Z,45.0248
2024-04-15T11:14:53.294Z,46.6493
2024-04-15T11:15:56.263Z,42.6399
2024-04-15T11:16:59.282Z,48.0072
2024-04-15T11:18:02.168Z,41.6037
2024-04-15T11:19:05.110Z,40.0960
2024-04-15T11:20:08.029Z,42.4465
2024-04-15T11:21:11.467Z,39.1839
2024-04-15T11:22:16.062Z,38.8314
2024-04-15T11:23:16.896Z,39.6591
2024-04-15T11:24:19.806Z,43.1618
2024-04-15T11:25:22.780Z,42.8533
2024-04-15T11:26:25.697Z,41.3061
2024-04-15T11:27:28.633Z,43.3649
2024-04-15T11:28:31.699Z,38.5489
2024-04-15T11:29:41.461Z,44.5180
2024-04-15T11:30:37.488Z,41.2453
2024-04-15T11:31:40.432Z,44.1099
2024-04-15T11:32:43.447Z,38.4737
2024-04-15T11:33:46.372Z,39.3806
2024-04-15T11:34:49.331Z,41.8769
2024-04-15T11:35:52.236Z,39.9086
2024-04-15T11:36:55.228Z,40.4913
2024-04-15T11:37:58.116Z,39.7421
2024-04-15T11:39:01.111Z,38.7834
2024-04-15T11:40:04.119Z,38.7718
2024-04-15T11:41:06.967Z,37.9008
2024-04-15T11:42:09.894Z,35.3517
2024-04-15T11:43:12.939Z,39.9377
2024-04-15T11:44:15.786Z,38.6898
2024-04-15T11:45:18.743Z,38.7313
2024-04-15T11:46:21.982Z,35.4634
2024-04-15T11:47:24.835Z,36.9703
2024-04-15T11:48:27.592Z,37.7602
2024-04-15T11:49:30.586Z,37.8633
2024-04-15T11:50:33.465Z,40.1607
2024-04-15T11:51:36.423Z,39.2549
2024-04-15T11:52:39.429Z,38.7388
2024-04-15T11:53:42.312Z,41.1093
2024-04-15T11:54:45.250Z,43.7199
2024-04-15T11:55:48.198Z,39.1976
2024-04-15T11:56:51.152Z,39.9775
2024-04-15T11:57:54.117Z,39.0093
2024-04-15T11:58:57.047Z,39.2038
2024-04-15T11:59:59.980Z,41.0665
2024-04-15T12:01:03.017Z,40.0104
2024-04-15T12:02:05.880Z,41.2216
2024-04-15T12:03:08.830Z,38.1115
2024-04-15T12:04:12.855Z,39.2891
2024-04-15T12:05:14.929Z,37.3609
2024-04-15T12:06:17.688Z,39.4790
2024-04-15T12:07:20.717Z,38.7636
2024-04-15T12:08:23.751Z,38.9829
2024-04-15T12:09:27.570Z,38.0508
2024-04-15T12:10:29.888Z,39.2274
2024-04-15T12:11:33.330Z,39.6034
2024-04-15T12:12:36.505Z,35.9093
2024-04-15T12:13:39.118Z,39.3065
2024-04-15T12:14:42.034Z,38.7293
2024-04-15T12:15:44.675Z,36.4205
2024-04-15T12:16:48.179Z,36.5669
2024-04-15T12:17:51.605Z,33.7456
2024-04-15T12:18:53.880Z,30.8312
2024-04-15T12:19:55.996Z,34.4842
2024-04-15T12:20:58.929Z,35.3229
2024-04-15T12:22:01.908Z,36.3006
2024-04-15T12:23:04.959Z,36.0037
2024-04-15T12:24:07.845Z,32.2361
2024-04-15T12:25:11.037Z,34.6114
2024-04-15T12:26:13.670Z,33.1826
2024-04-15T12:27:16.608Z,33.1605
2024-04-15T12:28:19.594Z,35.8981
2024-04-15T12:29:22.502Z,41.5117
2024-04-15T12:30:25.448Z,41.9482
2024-04-15T12:31:28.981Z,45.6353
2024-04-15T12:32:31.468Z,42.7407
2024-04-15T12:33:35.544Z,38.8549
2024-04-15T12:34:37.255Z,42.7990
2024-04-15T12:35:40.203Z,43.3272
2024-04-15T12:36:43.152Z,46.7779
2024-04-15T12:37:46.120Z,49.2552
2024-04-15T12:38:51.582Z,46.6762
2024-04-15T12:39:52.042Z,47.7706
2024-04-15T12:40:54.967Z,48.6531